Latest Weather Observations for Borroloola

IDD60801

Issued at 12:01 pm CST Thursday 23 February 2017 (issued every 30 minutes, with the page automatically refreshed every 10 minutes)

About weather observations | Map of weather stations | Latest weather observations for NT | Other Formats
Station Details ID: 014723 Name: BORROLOOLA AIRPORT Lat: -16.08 Lon: 136.30 Height: 16.1 m
Data from the previous 72 hours. | See also: Recent months at Borroloola
Date/Time
CST
Temp
°C
App
Temp
°C
Dew
Point
°C
Rel
Hum
%
Delta-T
°C
Wind Press
QNH
hPa
Press
MSL
hPa
Rain since
9am
mm
Dir  Spd
km/h
Gust
km/h
Spd
kts
Gust
kts
23/12:00pm 30.1 35.1 23.8 69 4.4 SSE 4 9 2 5 1009.3 1009.2 0.2
23/11:30am 29.3 34.2 23.0 69 4.3 SE 2 9 1 5 1009.6 1009.5 0.0
23/11:00am 29.1 34.5 23.8 73 3.7 ESE 2 7 1 4 1009.8 1009.7 0.0
23/10:30am 28.7 33.3 23.8 75 3.4 SE 6 9 3 5 1010.2 1010.1 0.0
23/10:00am 27.9 32.4 23.9 79 2.8 S 7 9 4 5 1010.6 1010.5 0.0
23/09:30am 27.3 31.5 23.5 80 2.6 ESE 7 11 4 6 1010.8 1010.7 0.0
23/09:00am 26.7 30.8 24.0 85 1.9 SSE 9 13 5 7 1010.6 1010.5 2.4
23/08:30am 26.1 30.8 24.3 90 1.2 SSE 7 11 4 6 1010.4 1010.3 2.4
23/08:00am 25.4 29.7 24.2 93 0.8 SSE 9 11 5 6 1010.1 1010.0 2.4
23/07:30am 25.0 29.1 24.0 94 0.7 S 9 13 5 7 1009.7 1009.6 2.4
23/07:00am 24.8 29.5 23.9 95 0.6 S 6 9 3 5 1009.4 1009.3 2.4
23/06:30am 24.6 28.6 23.7 95 0.6 S 9 11 5 6 1009.0 1008.9 2.4
23/06:00am 24.7 29.3 24.2 97 0.3 SSW 7 9 4 5 1008.4 1008.3 2.4
23/05:30am 24.6 29.3 23.9 96 0.5 SSE 6 6 3 3 1008.2 1008.1 2.4
23/05:00am 24.7 29.2 24.0 96 0.5 SSE 7 9 4 5 1008.0 1007.9 2.4
23/04:30am 24.8 30.6 23.9 95 0.6 CALM 0 7 0 4 1007.6 1007.5 2.4
23/04:00am 24.8 30.6 23.9 95 0.6 CALM 0 0 0 0 1007.2 1007.1 2.4
23/03:30am 24.6 30.3 23.7 95 0.6 CALM 0 0 0 0 1007.1 1007.0 2.4
23/03:00am 24.9 30.6 23.7 93 0.8 CALM 0 0 0 0 1006.9 1006.8 2.4
23/02:30am 25.0 30.8 24.0 94 0.7 CALM 0 0 0 0 1007.1 1007.0 2.4
23/02:00am 25.0 30.7 23.8 93 0.8 CALM 0 0 0 0 1007.6 1007.5 2.4
23/01:30am 25.1 31.0 24.1 94 0.7 CALM 0 0 0 0 1008.0 1007.9 2.4
23/01:00am 25.2 30.9 23.8 92 1.0 CALM 0 0 0 0 1008.3 1008.2 2.4
23/12:30am 25.2 31.0 24.0 93 0.8 CALM 0 0 0 0 1008.7 1008.6 2.4
23/12:00am 25.2 29.8 23.8 92 1.0 NW 6 7 3 4 1009.0 1008.9 2.4
 
Date/Time
CST
Temp
°C
App
Temp
°C
Dew
Point
°C
Rel
Hum
%
Delta-T
°C
Wind Press
QNH
hPa
Press
MSL
hPa
Rain since
9am
mm
Dir  Spd
km/h
Gust
km/h
Spd
kts
Gust
kts
22/11:30pm 25.4 31.1 23.8 91 1.1 CALM 0 6 0 3 1009.4 1009.3 2.4
22/11:00pm 25.4 30.0 23.8 91 1.1 N 6 9 3 5 1009.5 1009.4 2.4
22/10:30pm 25.0 27.1 23.1 89 1.3 W 17 20 9 11 1009.7 1009.6 2.4
22/10:00pm 26.2 29.2 23.3 84 2.0 S 13 19 7 10 1009.9 1009.8 0.8
22/09:30pm 28.0 32.0 23.8 78 2.9 NNE 9 15 5 8 1008.7 1008.6 0.0
22/09:00pm 28.6 34.6 24.2 77 3.1 CALM 0 6 0 3 1008.5 1008.4 0.0
22/08:30pm 29.1 33.1 23.8 73 3.7 ESE 9 15 5 8 1008.1 1008.0 0.0
22/08:00pm 28.9 33.4 24.0 75 3.4 W 7 9 4 5 1007.6 1007.5 0.0
22/07:30pm 29.1 33.6 24.0 74 3.5 W 7 9 4 5 1007.3 1007.2 0.0
22/07:00pm 30.1 34.2 23.3 67 4.7 W 7 9 4 5 1006.9 1006.8 0.0
22/06:30pm 31.7 36.1 23.8 63 5.5 SW 7 9 4 5 1006.6 1006.5 0.0
22/06:00pm 32.3 35.5 22.4 56 6.8 SW 9 15 5 8 1006.2 1006.1 0.0
22/05:30pm 32.5 34.2 22.3 55 7.0 SW 17 22 9 12 1005.9 1005.8 0.0
22/05:00pm 32.6 34.2 22.1 54 7.2 SW 17 22 9 12 1005.7 1005.6 0.0
22/04:30pm 32.6 34.7 22.4 55 7.0 SW 15 20 8 11 1005.9 1005.8 0.0
22/04:00pm 32.8 35.8 23.4 57 6.5 SW 13 17 7 9 1006.1 1006.0 0.0
22/03:30pm 32.4 34.5 22.5 56 6.8 SW 15 24 8 13 1006.1 1006.0 0.0
22/03:00pm 32.1 34.6 23.1 59 6.2 SW 15 26 8 14 1006.2 1006.1 0.0
22/02:30pm 31.4 33.9 23.2 61 5.7 SW 15 28 8 15 1006.7 1006.6 0.0
22/02:00pm 30.9 32.9 23.0 62 5.4 SW 17 22 9 12 1007.5 1007.4 0.0
22/01:30pm 30.5 33.0 23.2 65 5.0 SSW 15 22 8 12 1007.8 1007.7 0.0
22/01:00pm 29.7 31.0 22.4 65 5.0 SSW 19 24 10 13 1008.0 1007.9 0.0
22/12:30pm 28.9 30.2 22.4 68 4.4 SW 19 22 10 12 1008.5 1008.4 0.0
22/12:00pm 29.0 30.9 22.7 69 4.3 SW 17 24 9 13 1008.9 1008.8 0.0
22/11:30am 28.4 30.2 22.6 71 3.9 SSW 17 22 9 12 1009.2 1009.1 0.0
22/11:00am 28.7 31.3 22.7 70 4.1 SW 13 19 7 10 1009.4 1009.3 0.0
22/10:30am 27.5 30.0 22.4 73 3.4 SSW 13 19 7 10 1009.6 1009.5 0.0
22/10:00am 27.1 29.8 22.9 78 2.9 SSW 13 19 7 10 1009.8 1009.7 0.0
22/09:30am 26.2 28.6 22.3 79 2.6 SSW 13 19 7 10 1010.0 1009.9 0.0
22/09:00am 26.0 28.7 22.9 83 2.1 SSW 13 19 7 10 1010.1 1010.0 2.2
22/08:30am 25.7 29.0 23.2 86 1.7 SSW 11 17 6 9 1009.9 1009.8 2.2
22/08:00am 25.2 28.3 22.9 87 1.6 SSW 11 15 6 8 1009.6 1009.5 2.2
22/07:30am 24.8 28.4 23.0 90 1.2 SW 9 13 5 7 1009.3 1009.2 2.2
22/07:00am 24.5 28.0 22.8 90 1.1 SW 9 13 5 7 1008.8 1008.7 2.2
22/06:30am 24.3 27.3 22.7 91 1.1 SW 11 15 6 8 1008.4 1008.3 2.2
22/06:00am 24.0 27.3 22.6 92 0.9 SW 9 11 5 6 1008.3 1008.2 2.0
22/05:30am 23.9 27.2 22.5 92 0.9 SW 9 11 5 6 1008.0 1007.9 2.0
22/05:00am 23.9 26.8 22.5 92 0.9 WSW 11 13 6 7 1007.8 1007.7 2.0
22/04:30am 23.9 27.2 22.5 92 0.9 WSW 9 11 5 6 1007.3 1007.2 2.0
22/04:00am 24.0 27.7 22.6 92 0.9 WSW 7 9 4 5 1006.9 1006.8 2.0
22/03:30am 23.8 27.6 22.4 92 0.9 W 6 7 3 4 1006.9 1006.8 2.0
22/03:00am 23.7 28.2 22.3 92 0.9 W 2 7 1 4 1006.7 1006.6 2.0
22/02:30am 23.8 28.6 22.2 91 1.1 CALM 0 0 0 0 1006.9 1006.8 2.0
22/02:00am 24.1 27.7 22.4 90 1.1 SW 7 9 4 5 1007.1 1007.0 2.0
22/01:30am 24.2 27.5 22.5 90 1.1 WSW 9 13 5 7 1007.5 1007.4 2.0
22/01:00am 24.1 27.4 22.5 91 1.1 SW 9 11 5 6 1007.7 1007.6 2.0
22/12:30am 24.2 27.9 22.5 90 1.1 WSW 7 11 4 6 1007.9 1007.8 2.0
22/12:00am 24.3 27.6 22.6 90 1.1 WSW 9 11 5 6 1008.1 1008.0 2.0
 
Date/Time
CST
Temp
°C
App
Temp
°C
Dew
Point
°C
Rel
Hum
%
Delta-T
°C
Wind Press
QNH
hPa
Press
MSL
hPa
Rain since
9am
mm
Dir  Spd
km/h
Gust
km/h
Spd
kts
Gust
kts
21/11:30pm 24.4 28.2 22.7 90 1.1 WSW 7 9 4 5 1008.5 1008.4 2.0
21/11:00pm 24.5 28.3 22.8 90 1.1 WSW 7 9 4 5 1008.8 1008.7 2.0
21/10:30pm 24.8 28.0 23.0 90 1.2 SW 11 13 6 7 1008.7 1008.6 2.0
21/10:00pm 24.9 29.4 24.0 95 0.6 WSW 7 9 4 5 1008.5 1008.4 2.0
21/09:30pm 24.9 30.7 23.9 94 0.7 CALM 0 0 0 0 1008.5 1008.4 2.0
21/09:00pm 25.0 30.8 24.0 94 0.7 CALM 0 0 0 0 1008.5 1008.4 2.0
21/08:30pm 25.1 31.0 24.1 94 0.7 CALM 0 7 0 4 1008.5 1008.4 2.0
21/08:00pm 24.8 28.7 23.6 93 0.8 NNE 9 11 5 6 1008.2 1008.1 2.0
21/07:30pm 25.0 28.0 23.4 91 1.1 ENE 13 19 7 10 1008.1 1008.0 2.0
21/07:00pm 25.8 29.8 23.7 88 1.4 NNE 9 15 5 8 1007.5 1007.4 0.4
21/06:30pm 26.5 31.0 24.0 86 1.7 NE 7 9 4 5 1007.2 1007.1 0.4
21/06:00pm 26.5 31.2 24.0 86 1.7 N 6 9 3 5 1006.6 1006.5 0.4
21/05:30pm 26.4 29.6 22.3 78 2.8 SSE 9 17 5 9 1006.4 1006.3 0.4
21/05:00pm 29.2 31.6 22.9 69 4.3 WSW 15 22 8 12 1005.9 1005.8 0.0
21/04:30pm 29.3 31.8 22.5 67 4.6 WSW 13 15 7 8 1006.0 1005.9 0.0
21/04:00pm 29.1 31.3 22.6 68 4.4 WSW 15 24 8 13 1006.1 1006.0 0.0
21/03:30pm 28.8 29.5 22.3 68 4.4 SW 22 30 12 16 1006.1 1006.0 0.0
21/03:00pm 29.2 30.1 21.9 64 4.9 SSW 20 30 11 16 1006.0 1005.9 0.0
21/02:30pm 28.4 29.4 22.2 69 4.2 SW 20 28 11 15 1006.2 1006.1 0.0
21/02:00pm 28.1 30.4 22.1 70 4.0 SW 13 20 7 11 1006.5 1006.4 0.0
21/01:30pm 28.3 31.4 22.1 69 4.2 S 9 17 5 9 1006.8 1006.7 0.0
21/01:00pm 28.2 30.2 21.5 67 4.5 S 13 20 7 11 1007.4 1007.3 0.0
21/12:30pm 28.7 30.3 22.2 68 4.4 WSW 17 22 9 12 1007.7 1007.6 0.0
21/12:00pm 27.2 28.5 21.7 72 3.7 SSW 17 20 9 11 1008.1 1008.0 0.0
21/11:30am 27.1 27.9 21.4 71 3.8 SSW 19 26 10 14 1008.2 1008.1 0.0
21/11:00am 26.7 27.0 20.8 70 3.9 SSW 20 28 11 15 1008.3 1008.2 0.0
21/10:30am 26.4 26.7 20.7 71 3.8 SSW 20 32 11 17 1008.2 1008.1 0.0
21/10:00am 26.1 25.8 20.4 71 3.7 SSW 22 32 12 17 1008.3 1008.2 0.0
21/09:30am 26.1 26.0 20.7 72 3.6 S 22 35 12 19 1008.3 1008.2 0.0
21/09:00am 25.0 24.8 20.5 76 2.9 S 22 28 12 15 1008.5 1008.4 38.2
21/08:30am 24.0 23.6 20.1 79 2.5 SSW 22 30 12 16 1008.6 1008.5 38.2
21/08:00am 23.4 24.3 20.0 81 2.2 SSW 15 20 8 11 1008.4 1008.3 38.2
21/07:30am 22.9 24.1 19.9 83 1.9 SW 13 17 7 9 1008.1 1008.0 38.2
21/07:00am 22.8 23.5 19.6 82 2.0 SW 15 20 8 11 1007.6 1007.5 38.2
21/06:30am 22.5 23.6 19.7 84 1.8 SW 13 17 7 9 1007.2 1007.1 38.2
21/06:00am 22.7 23.7 19.5 82 2.0 SW 13 19 7 10 1006.9 1006.8 38.2
21/05:30am 22.8 23.4 19.4 81 2.2 SSW 15 22 8 12 1006.5 1006.4 38.2
21/05:00am 22.8 23.1 19.6 82 2.0 SSW 17 26 9 14 1006.4 1006.3 38.2
21/04:30am 22.9 23.2 19.5 81 2.2 SSW 17 24 9 13 1006.0 1005.9 38.2
21/04:00am 22.9 22.6 19.5 81 2.2 SSW 20 28 11 15 1006.0 1005.9 38.2
21/03:30am 22.7 23.0 19.5 82 2.0 SSW 17 24 9 13 1006.0 1005.9 38.2
21/03:00am 22.7 22.9 19.3 81 2.2 S 17 22 9 12 1005.9 1005.8 38.2
21/02:30am 22.9 22.7 19.3 80 2.3 SSW 19 24 10 13 1006.0 1005.9 38.2
21/02:00am 22.8 22.6 19.4 81 2.2 SSW 19 24 10 13 1006.2 1006.1 38.2
21/01:30am 22.8 22.1 19.4 81 2.2 SSW 22 33 12 18 1006.5 1006.4 38.2
21/01:00am 22.5 22.8 19.5 83 1.9 SSW 17 28 9 15 1006.8 1006.7 38.2
21/12:30am 22.4 21.7 19.6 84 1.8 S 22 33 12 18 1007.2 1007.1 38.2
21/12:00am 22.8 21.8 19.6 82 2.1 S 24 39 13 21 1007.5 1007.4 38.2
 
Date/Time
CST
Temp
°C
App
Temp
°C
Dew
Point
°C
Rel
Hum
%
Delta-T
°C
Wind Press
QNH
hPa
Press
MSL
hPa
Rain since
9am
mm
Dir  Spd
km/h
Gust
km/h
Spd
kts
Gust
kts
20/11:30pm 23.0 22.7 19.6 81 2.2 SSW 20 30 11 16 1007.7 1007.6 38.2
20/11:00pm 23.0 22.4 19.8 82 2.1 SSW 22 32 12 17 1007.7 1007.6 38.2
20/10:30pm 23.0 22.5 20.0 83 1.9 SSW 22 30 12 16 1007.9 1007.8 38.2
20/10:00pm 22.9 23.0 20.4 86 1.6 SSW 20 28 11 15 1007.9 1007.8 38.2
20/09:30pm 22.7 22.4 20.4 87 1.5 SW 22 32 12 17 1007.3 1007.2 38.2
20/09:00pm 22.4 22.9 20.9 91 1.0 SW 19 28 10 15 1007.0 1006.9 38.2
20/08:30pm 22.4 23.8 21.0 92 0.9 SSW 15 20 8 11 1007.1 1007.0 37.4
20/08:00pm 22.2 23.6 21.0 93 0.8 SSW 15 22 8 12 1006.5 1006.4 36.8
20/07:30pm 22.5 22.8 20.8 90 1.1 SW 20 26 11 14 1006.0 1005.9 35.6
20/07:00pm 22.6 22.4 20.5 88 1.4 SSW 22 37 12 20 1005.2 1005.1 35.4
20/06:30pm 22.5 22.8 20.8 90 1.1 SSW 20 28 11 15 1005.1 1005.0 35.4
20/06:00pm 22.3 22.3 20.9 92 0.9 SSW 22 33 12 18 1004.5 1004.4 35.4
20/05:30pm 22.1 21.7 20.9 93 0.8 SSW 24 32 13 17 1004.1 1004.0 35.2
20/05:00pm 21.6 20.7 20.6 94 0.6 SSW 26 35 14 19 1003.9 1003.8 35.2
20/04:30pm 22.1 21.5 21.3 95 0.5 SSW 26 35 14 19 1003.7 1003.6 34.6
20/04:00pm 22.0 22.1 21.2 95 0.5 SSW 22 33 12 18 1003.4 1003.3 32.2
20/03:30pm 22.1 21.8 21.1 94 0.7 S 24 33 13 18 1003.3 1003.2 29.6
20/03:00pm 22.1 19.6 20.9 93 0.8 SSE 35 56 19 30 1003.0 1002.9 29.0
20/02:30pm 22.2 18.7 21.2 94 0.7 SSE 41 59 22 32 1002.8 1002.7 27.2
20/02:25pm 22.1 19.3 21.1 94 0.7 SSE 37 59 20 32 1002.7 1002.6 27.0
20/02:00pm 22.0 20.3 21.3 96 0.5 S 32 50 17 27 1003.2 1003.1 25.0
20/01:30pm 21.5 17.8 20.8 96 0.5 SSE 41 67 22 36 1002.7 1002.6 22.2
20/01:00pm 21.9 18.1 21.4 97 0.3 SSE 43 67 23 36 1002.5 1002.4 18.6
20/12:31pm 22.0 16.9 20.6 92 0.9 SE 48 69 26 37 1003.2 1003.1 15.0
20/12:30pm 22.0 17.3 20.6 92 0.9 SE 46 59 25 32 1003.3 1003.2 15.0

Other Formats:

Comma delimited format used in spreadsheet applications
http://www.bom.gov.au/fwo/IDD60801/IDD60801.94152.axf

JavaScript Object Notation format (JSON) in row-major order
http://www.bom.gov.au/fwo/IDD60801/IDD60801.94152.json